sensor_id;sensor_type;location;lat;lon;timestamp;temperature;humidity
19224;DHT22;9746;47.180;9.776;2023-02-28T10:30:27;10.40;99.90
19224;DHT22;9746;47.180;9.776;2023-02-28T10:32:55;10.60;99.90
19224;DHT22;9746;47.180;9.776;2023-02-28T10:35:25;10.70;99.90
19224;DHT22;9746;47.180;9.776;2023-02-28T10:37:55;10.60;99.90
19224;DHT22;9746;47.180;9.776;2023-02-28T10:40:31;10.50;99.90
19224;DHT22;9746;47.180;9.776;2023-02-28T10:43:00;10.70;99.90
19224;DHT22;9746;47.180;9.776;2023-02-28T10:45:32;10.80;99.90
19224;DHT22;9746;47.180;9.776;2023-02-28T10:48:02;10.80;99.90
19224;DHT22;9746;47.180;9.776;2023-02-28T10:50:51;11.20;99.90
19224;DHT22;9746;47.180;9.776;2023-02-28T10:53:39;11.40;99.90
19224;DHT22;9746;47.180;9.776;2023-02-28T10:56:17;11.20;99.90
19224;DHT22;9746;47.180;9.776;2023-02-28T10:58:54;11.20;99.90
19224;DHT22;9746;47.180;9.776;2023-02-28T11:01:40;11.30;99.90
19224;DHT22;9746;47.180;9.776;2023-02-28T11:04:19;11.10;99.90
19224;DHT22;9746;47.180;9.776;2023-02-28T11:06:48;11.00;99.90
19224;DHT22;9746;47.180;9.776;2023-02-28T11:09:28;11.20;99.90
19224;DHT22;9746;47.180;9.776;2023-02-28T11:11:57;11.70;99.90
19224;DHT22;9746;47.180;9.776;2023-02-28T11:14:29;12.00;99.90
19224;DHT22;9746;47.180;9.776;2023-02-28T11:17:15;12.50;99.90
19224;DHT22;9746;47.180;9.776;2023-02-28T11:19:49;12.90;99.90
19224;DHT22;9746;47.180;9.776;2023-02-28T11:22:20;12.70;99.90
19224;DHT22;9746;47.180;9.776;2023-02-28T11:24:54;12.70;99.90
19224;DHT22;9746;47.180;9.776;2023-02-28T11:27:41;13.10;99.90
19224;DHT22;9746;47.180;9.776;2023-02-28T11:30:41;13.20;99.90
19224;DHT22;9746;47.180;9.776;2023-02-28T11:33:27;13.60;99.90
19224;DHT22;9746;47.180;9.776;2023-02-28T11:36:03;13.80;99.90
19224;DHT22;9746;47.180;9.776;2023-02-28T11:38:33;13.30;99.90
19224;DHT22;9746;47.180;9.776;2023-02-28T11:47:14;13.50;99.90
19224;DHT22;9746;47.180;9.776;2023-02-28T11:50:04;13.70;99.90
19224;DHT22;9746;47.180;9.776;2023-02-28T11:52:42;13.20;99.90
19224;DHT22;9746;47.180;9.776;2023-02-28T11:55:25;13.20;99.90
19224;DHT22;9746;47.180;9.776;2023-02-28T12:01:09;13.30;99.90
19224;DHT22;9746;47.180;9.776;2023-02-28T12:03:47;13.10;99.90
19224;DHT22;9746;47.180;9.776;2023-02-28T12:06:27;13.40;99.90
19224;DHT22;9746;47.180;9.776;2023-02-28T12:09:04;13.50;99.90
19224;DHT22;9746;47.180;9.776;2023-02-28T12:11:50;13.70;99.90
19224;DHT22;9746;47.180;9.776;2023-02-28T12:14:45;14.10;99.90
19224;DHT22;9746;47.180;9.776;2023-02-28T12:17:22;14.60;99.90
19224;DHT22;9746;47.180;9.776;2023-02-28T12:20:17;15.00;99.90
19224;DHT22;9746;47.180;9.776;2023-02-28T12:22:56;15.00;99.90
19224;DHT22;9746;47.180;9.776;2023-02-28T12:25:55;15.30;99.90
19224;DHT22;9746;47.180;9.776;2023-02-28T12:28:28;15.50;99.90
19224;DHT22;9746;47.180;9.776;2023-02-28T12:31:17;15.80;99.90
19224;DHT22;9746;47.180;9.776;2023-02-28T12:33:51;15.50;99.40
19224;DHT22;9746;47.180;9.776;2023-02-28T12:36:21;15.50;99.30
19224;DHT22;9746;47.180;9.776;2023-02-28T12:38:58;14.80;99.00
19224;DHT22;9746;47.180;9.776;2023-02-28T12:41:41;14.70;99.90
19224;DHT22;9746;47.180;9.776;2023-02-28T12:44:12;14.30;99.60
19224;DHT22;9746;47.180;9.776;2023-02-28T12:46:46;13.80;99.90
19224;DHT22;9746;47.180;9.776;2023-02-28T12:49:19;14.00;99.90
19224;DHT22;9746;47.180;9.776;2023-02-28T12:51:49;14.40;99.90
19224;DHT22;9746;47.180;9.776;2023-02-28T12:54:25;14.50;99.90
19224;DHT22;9746;47.180;9.776;2023-02-28T12:57:01;15.30;99.90
19224;DHT22;9746;47.180;9.776;2023-02-28T12:59:38;16.10;99.40
19224;DHT22;9746;47.180;9.776;2023-02-28T13:02:30;16.90;98.70
19224;DHT22;9746;47.180;9.776;2023-02-28T13:05:21;17.10;98.10
19224;DHT22;9746;47.180;9.776;2023-02-28T13:08:15;17.10;96.90
19224;DHT22;9746;47.180;9.776;2023-02-28T13:11:00;17.20;97.00
19224;DHT22;9746;47.180;9.776;2023-02-28T13:13:29;17.70;95.60
19224;DHT22;9746;47.180;9.776;2023-02-28T13:16:00;18.40;94.70
19224;DHT22;9746;47.180;9.776;2023-02-28T13:18:32;18.30;94.30
19224;DHT22;9746;47.180;9.776;2023-02-28T13:21:01;18.60;94.90
19224;DHT22;9746;47.180;9.776;2023-02-28T13:23:41;19.10;93.60
19224;DHT22;9746;47.180;9.776;2023-02-28T13:29:47;19.00;91.60
19224;DHT22;9746;47.180;9.776;2023-02-28T13:32:30;19.70;91.80
19224;DHT22;9746;47.180;9.776;2023-02-28T13:38:38;19.40;91.20
19224;DHT22;9746;47.180;9.776;2023-02-28T13:44:13;18.90;90.20
19224;DHT22;9746;47.180;9.776;2023-02-28T13:50:24;19.30;89.50
19224;DHT22;9746;47.180;9.776;2023-02-28T13:53:34;19.40;89.30
19224;DHT22;9746;47.180;9.776;2023-02-28T13:56:30;19.50;87.70
19224;DHT22;9746;47.180;9.776;2023-02-28T13:59:07;18.80;88.50
19224;DHT22;9746;47.180;9.776;2023-02-28T14:05:00;18.90;88.50
19224;DHT22;9746;47.180;9.776;2023-02-28T14:07:32;19.20;87.50
19224;DHT22;9746;47.180;9.776;2023-02-28T14:10:22;19.60;86.60
19224;DHT22;9746;47.180;9.776;2023-02-28T14:13:00;19.10;85.90
19224;DHT22;9746;47.180;9.776;2023-02-28T14:15:44;18.80;85.70
19224;DHT22;9746;47.180;9.776;2023-02-28T14:18:25;18.80;86.30
19224;DHT22;9746;47.180;9.776;2023-02-28T14:24:42;18.50;85.70
19224;DHT22;9746;47.180;9.776;2023-02-28T14:27:28;17.70;86.10
19224;DHT22;9746;47.180;9.776;2023-02-28T14:33:43;16.50;87.20
19224;DHT22;9746;47.180;9.776;2023-02-28T14:36:23;16.40;87.80
19224;DHT22;9746;47.180;9.776;2023-02-28T14:38:53;15.80;88.20
19224;DHT22;9746;47.180;9.776;2023-02-28T14:41:30;15.30;88.90
19224;DHT22;9746;47.180;9.776;2023-02-28T14:44:02;14.50;89.90
19224;DHT22;9746;47.180;9.776;2023-02-28T14:46:52;13.80;90.30
19224;DHT22;9746;47.180;9.776;2023-02-28T14:49:23;12.80;91.10
19224;DHT22;9746;47.180;9.776;2023-02-28T14:52:15;12.20;91.80
19224;DHT22;9746;47.180;9.776;2023-02-28T14:54:44;11.60;92.40
19224;DHT22;9746;47.180;9.776;2023-02-28T14:57:34;11.30;92.90
19224;DHT22;9746;47.180;9.776;2023-02-28T15:00:09;10.90;93.30
19224;DHT22;9746;47.180;9.776;2023-02-28T15:02:39;10.60;93.60
19224;DHT22;9746;47.180;9.776;2023-02-28T15:05:26;9.80;94.90
19224;DHT22;9746;47.180;9.776;2023-02-28T15:08:05;9.50;95.60
19224;DHT22;9746;47.180;9.776;2023-02-28T15:10:51;9.20;95.80
19224;DHT22;9746;47.180;9.776;2023-02-28T15:13:23;8.90;96.40
19224;DHT22;9746;47.180;9.776;2023-02-28T15:16:02;8.60;97.00
19224;DHT22;9746;47.180;9.776;2023-02-28T15:18:38;8.50;97.50
19224;DHT22;9746;47.180;9.776;2023-02-28T15:21:21;8.00;98.10
19224;DHT22;9746;47.180;9.776;2023-02-28T15:23:54;7.90;98.70
19224;DHT22;9746;47.180;9.776;2023-02-28T15:26:31;7.80;99.10
19224;DHT22;9746;47.180;9.776;2023-02-28T15:29:04;7.70;99.40
19224;DHT22;9746;47.180;9.776;2023-02-28T15:31:48;7.60;99.80
19224;DHT22;9746;47.180;9.776;2023-02-28T15:34:20;7.40;99.90
19224;DHT22;9746;47.180;9.776;2023-02-28T15:36:51;7.20;99.90
19224;DHT22;9746;47.180;9.776;2023-02-28T15:39:23;6.90;99.90
19224;DHT22;9746;47.180;9.776;2023-02-28T15:45:04;6.70;99.90
19224;DHT22;9746;47.180;9.776;2023-02-28T15:47:40;6.60;99.90
19224;DHT22;9746;47.180;9.776;2023-02-28T15:50:14;6.50;99.90
19224;DHT22;9746;47.180;9.776;2023-02-28T15:52:48;6.40;99.90
19224;DHT22;9746;47.180;9.776;2023-02-28T15:55:19;6.30;99.90
19224;DHT22;9746;47.180;9.776;2023-02-28T15:58:00;6.10;99.90
19224;DHT22;9746;47.180;9.776;2023-02-28T16:00:30;6.00;99.90
19224;DHT22;9746;47.180;9.776;2023-02-28T16:03:00;5.90;99.90
19224;DHT22;9746;47.180;9.776;2023-02-28T16:05:30;5.60;99.90
19224;DHT22;9746;47.180;9.776;2023-02-28T16:08:13;5.50;99.90
19224;DHT22;9746;47.180;9.776;2023-02-28T16:10:53;5.30;99.90
19224;DHT22;9746;47.180;9.776;2023-02-28T16:13:22;5.20;99.90
19224;DHT22;9746;47.180;9.776;2023-02-28T16:16:03;5.00;99.90
19224;DHT22;9746;47.180;9.776;2023-02-28T16:18:34;4.80;99.90
19224;DHT22;9746;47.180;9.776;2023-02-28T16:21:14;4.70;99.90
19224;DHT22;9746;47.180;9.776;2023-02-28T16:23:43;4.60;99.90
19224;DHT22;9746;47.180;9.776;2023-02-28T16:26:21;4.60;99.90
19224;DHT22;9746;47.180;9.776;2023-02-28T16:28:50;4.60;99.90
19224;DHT22;9746;47.180;9.776;2023-02-28T16:31:23;4.50;99.90
19224;DHT22;9746;47.180;9.776;2023-02-28T16:33:50;4.50;99.90
19224;DHT22;9746;47.180;9.776;2023-02-28T16:36:21;4.40;99.90
19224;DHT22;9746;47.180;9.776;2023-02-28T16:38:51;4.40;99.90
19224;DHT22;9746;47.180;9.776;2023-02-28T16:41:22;4.20;99.90
19224;DHT22;9746;47.180;9.776;2023-02-28T16:43:53;4.10;99.90
19224;DHT22;9746;47.180;9.776;2023-02-28T16:46:31;4.00;99.90
19224;DHT22;9746;47.180;9.776;2023-02-28T16:49:00;4.00;99.90
19224;DHT22;9746;47.180;9.776;2023-02-28T16:51:33;3.90;99.90
19224;DHT22;9746;47.180;9.776;2023-02-28T16:54:00;3.80;99.90
19224;DHT22;9746;47.180;9.776;2023-02-28T16:56:36;3.70;99.90
19224;DHT22;9746;47.180;9.776;2023-02-28T16:59:10;3.60;99.90
19224;DHT22;9746;47.180;9.776;2023-02-28T17:01:45;3.50;99.90
19224;DHT22;9746;47.180;9.776;2023-02-28T17:04:12;3.40;99.90
19224;DHT22;9746;47.180;9.776;2023-02-28T17:06:42;3.40;99.90
19224;DHT22;9746;47.180;9.776;2023-02-28T17:09:16;3.40;99.90
19224;DHT22;9746;47.180;9.776;2023-02-28T17:11:51;3.40;99.90
19224;DHT22;9746;47.180;9.776;2023-02-28T17:14:19;3.40;99.90
19224;DHT22;9746;47.180;9.776;2023-02-28T17:16:59;3.40;99.90
19224;DHT22;9746;47.180;9.776;2023-02-28T17:19:27;3.40;99.90
19224;DHT22;9746;47.180;9.776;2023-02-28T17:22:03;3.30;99.90
19224;DHT22;9746;47.180;9.776;2023-02-28T17:24:31;3.30;99.90
19224;DHT22;9746;47.180;9.776;2023-02-28T17:27:11;3.40;99.90
19224;DHT22;9746;47.180;9.776;2023-02-28T17:29:39;3.30;99.90
19224;DHT22;9746;47.180;9.776;2023-02-28T17:32:25;3.30;99.90
19224;DHT22;9746;47.180;9.776;2023-02-28T17:34:53;3.40;99.90
19224;DHT22;9746;47.180;9.776;2023-02-28T17:37:21;3.30;99.90
19224;DHT22;9746;47.180;9.776;2023-02-28T17:39:49;3.30;99.90
19224;DHT22;9746;47.180;9.776;2023-02-28T17:42:17;3.40;99.90
19224;DHT22;9746;47.180;9.776;2023-02-28T17:44:45;3.40;99.90
19224;DHT22;9746;47.180;9.776;2023-02-28T17:47:13;3.40;99.90
19224;DHT22;9746;47.180;9.776;2023-02-28T17:49:42;3.40;99.90
19224;DHT22;9746;47.180;9.776;2023-02-28T17:52:15;3.30;99.90
19224;DHT22;9746;47.180;9.776;2023-02-28T17:54:43;3.30;99.90
19224;DHT22;9746;47.180;9.776;2023-02-28T17:57:20;3.30;99.90
19224;DHT22;9746;47.180;9.776;2023-02-28T17:59:47;3.30;99.90
19224;DHT22;9746;47.180;9.776;2023-02-28T18:02:16;3.30;99.90
19224;DHT22;9746;47.180;9.776;2023-02-28T18:04:45;3.20;99.90
19224;DHT22;9746;47.180;9.776;2023-02-28T18:07:12;3.30;99.90
19224;DHT22;9746;47.180;9.776;2023-02-28T18:09:40;3.20;99.90
19224;DHT22;9746;47.180;9.776;2023-02-28T18:12:11;3.20;99.90
19224;DHT22;9746;47.180;9.776;2023-02-28T18:14:38;3.20;99.90
19224;DHT22;9746;47.180;9.776;2023-02-28T18:20:09;3.20;99.90
19224;DHT22;9746;47.180;9.776;2023-02-28T18:22:44;3.20;99.90
19224;DHT22;9746;47.180;9.776;2023-02-28T18:25:12;3.10;99.90
19224;DHT22;9746;47.180;9.776;2023-02-28T18:27:48;3.10;99.90
19224;DHT22;9746;47.180;9.776;2023-02-28T18:30:25;3.00;99.90
19224;DHT22;9746;47.180;9.776;2023-02-28T18:33:11;3.00;99.90
19224;DHT22;9746;47.180;9.776;2023-02-28T18:35:39;2.90;99.90
19224;DHT22;9746;47.180;9.776;2023-02-28T18:38:11;3.00;99.90
19224;DHT22;9746;47.180;9.776;2023-02-28T18:40:40;3.00;99.90
19224;DHT22;9746;47.180;9.776;2023-02-28T18:43:24;3.00;99.90
19224;DHT22;9746;47.180;9.776;2023-02-28T18:45:53;2.90;99.90
19224;DHT22;9746;47.180;9.776;2023-02-28T18:48:26;2.90;99.90
19224;DHT22;9746;47.180;9.776;2023-02-28T18:50:55;2.80;99.90
19224;DHT22;9746;47.180;9.776;2023-02-28T18:53:24;2.80;99.90
19224;DHT22;9746;47.180;9.776;2023-02-28T18:55:52;2.80;99.90
19224;DHT22;9746;47.180;9.776;2023-02-28T18:58:44;2.70;99.90
19224;DHT22;9746;47.180;9.776;2023-02-28T19:01:15;2.70;99.90
19224;DHT22;9746;47.180;9.776;2023-02-28T19:03:47;2.70;99.90
19224;DHT22;9746;47.180;9.776;2023-02-28T19:06:17;2.70;99.90
19224;DHT22;9746;47.180;9.776;2023-02-28T19:11:56;2.70;99.90
19224;DHT22;9746;47.180;9.776;2023-02-28T19:14:24;2.70;99.90
19224;DHT22;9746;47.180;9.776;2023-02-28T19:16:51;2.70;99.90
19224;DHT22;9746;47.180;9.776;2023-02-28T19:19:19;2.70;99.90
19224;DHT22;9746;47.180;9.776;2023-02-28T19:21:48;2.60;99.90
19224;DHT22;9746;47.180;9.776;2023-02-28T19:24:25;2.60;99.90
19224;DHT22;9746;47.180;9.776;2023-02-28T19:26:52;2.50;99.90
19224;DHT22;9746;47.180;9.776;2023-02-28T19:29:20;2.40;99.90
19224;DHT22;9746;47.180;9.776;2023-02-28T19:31:53;2.40;99.90
19224;DHT22;9746;47.180;9.776;2023-02-28T19:34:26;2.40;99.90
19224;DHT22;9746;47.180;9.776;2023-02-28T19:36:55;2.40;99.90
19224;DHT22;9746;47.180;9.776;2023-02-28T19:39:30;2.40;99.90
19224;DHT22;9746;47.180;9.776;2023-02-28T19:42:05;2.40;99.90
19224;DHT22;9746;47.180;9.776;2023-02-28T19:44:33;2.40;99.90
19224;DHT22;9746;47.180;9.776;2023-02-28T19:47:03;2.40;99.90
19224;DHT22;9746;47.180;9.776;2023-02-28T19:49:49;2.40;99.90
19224;DHT22;9746;47.180;9.776;2023-02-28T19:52:24;2.40;99.90
19224;DHT22;9746;47.180;9.776;2023-02-28T19:54:52;2.30;99.90
19224;DHT22;9746;47.180;9.776;2023-02-28T19:57:23;2.30;99.90
19224;DHT22;9746;47.180;9.776;2023-02-28T20:00:16;2.30;99.90
19224;DHT22;9746;47.180;9.776;2023-02-28T20:02:49;2.30;99.90
19224;DHT22;9746;47.180;9.776;2023-02-28T20:05:18;2.40;99.90
19224;DHT22;9746;47.180;9.776;2023-02-28T20:08:12;2.40;99.90
19224;DHT22;9746;47.180;9.776;2023-02-28T20:10:40;2.40;99.90
19224;DHT22;9746;47.180;9.776;2023-02-28T20:13:24;2.40;99.90
19224;DHT22;9746;47.180;9.776;2023-02-28T20:15:52;2.40;99.90
19224;DHT22;9746;47.180;9.776;2023-02-28T20:18:21;2.40;99.90
19224;DHT22;9746;47.180;9.776;2023-02-28T20:20:52;2.40;99.90
19224;DHT22;9746;47.180;9.776;2023-02-28T20:23:27;2.40;99.90
19224;DHT22;9746;47.180;9.776;2023-02-28T20:25:58;2.30;99.90
19224;DHT22;9746;47.180;9.776;2023-02-28T20:28:33;2.20;99.90
19224;DHT22;9746;47.180;9.776;2023-02-28T20:31:09;2.30;99.90
19224;DHT22;9746;47.180;9.776;2023-02-28T20:33:48;2.20;99.90
19224;DHT22;9746;47.180;9.776;2023-02-28T20:36:16;2.20;99.90
19224;DHT22;9746;47.180;9.776;2023-02-28T20:39:00;2.20;99.90
19224;DHT22;9746;47.180;9.776;2023-02-28T20:41:28;2.30;99.90
19224;DHT22;9746;47.180;9.776;2023-02-28T20:46:47;2.30;99.90
19224;DHT22;9746;47.180;9.776;2023-02-28T20:49:15;2.30;99.90
19224;DHT22;9746;47.180;9.776;2023-02-28T20:51:42;2.30;99.90
19224;DHT22;9746;47.180;9.776;2023-02-28T20:54:11;2.30;99.90
19224;DHT22;9746;47.180;9.776;2023-02-28T20:56:39;2.30;99.90
19224;DHT22;9746;47.180;9.776;2023-02-28T20:59:13;2.30;99.90
